Time;durP1;ratioP1;P1;durP2;ratioP2;P2;SDS_P1;SDS_P2;PMS_P1;PMS_P2;Temp;Humidity;BMP_temperature;BMP_pressure;BME280_temperature;BME280_humidity;BME280_pressure;Samples;Min_cycle;Max_cycle;Signal;HPM_P1;HPM_P2
2021/11/18 00:00:46;;;;;;;6.15;5.55;;;;;;;;;;4973158;28;20531;-72
2021/11/18 00:03:12;;;;;;;6.82;4.68;;;;;;;;;;4956193;28;20046;-73
2021/11/18 00:05:39;;;;;;;6.20;5.57;;;;;;;;;;4973372;28;20039;-73
2021/11/18 00:08:06;;;;;;;6.32;5.07;;;;;;;;;;4955690;28;20043;-73
2021/11/18 00:10:39;;;;;;;6.82;5.88;;;;;;;;;;4973302;28;20125;-72
2021/11/18 00:13:08;;;;;;;6.32;5.25;;;;;;;;;;4973078;28;20108;-73
2021/11/18 00:15:36;;;;;;;5.90;5.38;;;;;;;;;;4972225;28;20499;-72
2021/11/18 00:18:10;;;;;;;6.05;5.38;;;;;;;;;;4944155;29;20505;-73
2021/11/18 00:20:43;;;;;;;6.82;5.78;;;;;;;;;;4954116;29;20083;-72
2021/11/18 00:23:08;;;;;;;5.50;4.88;;;;;;;;;;4953706;29;20493;-72
2021/11/18 00:25:34;;;;;;;5.90;5.32;;;;;;;;;;4936279;29;20039;-72
2021/11/18 00:28:00;;;;;;;5.22;4.75;;;;;;;;;;4953826;29;20126;-73
2021/11/18 00:30:26;;;;;;;5.85;4.80;;;;;;;;;;4953309;29;20090;-73
2021/11/18 00:32:52;;;;;;;5.82;4.95;;;;;;;;;;4953694;29;20043;-73
2021/11/18 00:35:21;;;;;;;6.80;5.38;;;;;;;;;;4953473;29;20564;-73
2021/11/18 00:37:47;;;;;;;7.35;5.55;;;;;;;;;;4951930;29;20505;-73
2021/11/18 00:40:16;;;;;;;6.07;5.45;;;;;;;;;;4952214;29;20388;-73
2021/11/18 00:42:42;;;;;;;6.10;5.50;;;;;;;;;;4953477;29;20472;-73
2021/11/18 00:45:09;;;;;;;4.78;4.35;;;;;;;;;;4935757;29;20149;-72
2021/11/18 00:47:35;;;;;;;7.65;6.03;;;;;;;;;;4953238;29;20047;-73
2021/11/18 00:50:00;;;;;;;4.97;4.43;;;;;;;;;;4953604;29;20039;-73
2021/11/18 00:52:26;;;;;;;5.85;5.05;;;;;;;;;;4952830;29;20039;-73
2021/11/18 00:54:51;;;;;;;5.70;4.72;;;;;;;;;;4953106;29;20185;-73
2021/11/18 00:57:17;;;;;;;5.88;4.60;;;;;;;;;;4953436;29;20066;-73
2021/11/18 00:59:46;;;;;;;6.20;5.53;;;;;;;;;;4952867;29;20065;-73
2021/11/18 01:02:13;;;;;;;6.95;5.75;;;;;;;;;;4933328;29;20039;-73
2021/11/18 01:04:38;;;;;;;6.07;5.40;;;;;;;;;;4953181;29;20078;-72
2021/11/18 01:07:04;;;;;;;5.75;5.22;;;;;;;;;;4952781;29;20497;-72
2021/11/18 01:09:31;;;;;;;5.97;5.20;;;;;;;;;;4952937;29;20043;-72
2021/11/18 01:11:57;;;;;;;5.60;4.93;;;;;;;;;;4953110;29;20139;-73
2021/11/18 01:14:24;;;;;;;5.90;5.10;;;;;;;;;;4952274;29;20142;-73
2021/11/18 01:16:51;;;;;;;6.25;4.88;;;;;;;;;;4952914;29;20055;-72
2021/11/18 01:19:18;;;;;;;7.22;6.00;;;;;;;;;;4972256;28;20047;-73
2021/11/18 01:21:47;;;;;;;6.47;5.57;;;;;;;;;;4954486;28;20043;-73
2021/11/18 01:24:15;;;;;;;5.88;5.28;;;;;;;;;;4969609;28;20043;-73
2021/11/18 01:26:41;;;;;;;6.72;5.95;;;;;;;;;;4972205;28;20039;-73
2021/11/18 01:29:07;;;;;;;7.05;5.43;;;;;;;;;;4972055;28;20546;-73
2021/11/18 01:31:33;;;;;;;4.40;3.83;;;;;;;;;;4954777;28;20161;-73
2021/11/18 01:33:59;;;;;;;7.20;6.50;;;;;;;;;;4972122;28;20051;-74
2021/11/18 01:36:25;;;;;;;6.40;5.80;;;;;;;;;;4971285;28;20074;-73
2021/11/18 01:38:51;;;;;;;6.03;5.35;;;;;;;;;;4971969;28;20047;-74
2021/11/18 01:41:23;;;;;;;5.50;5.07;;;;;;;;;;4972292;28;20039;-74
2021/11/18 01:43:52;;;;;;;4.63;3.58;;;;;;;;;;4971272;28;20412;-72
2021/11/18 01:46:22;;;;;;;5.72;5.20;;;;;;;;;;4970908;28;20046;-73
2021/11/18 01:48:49;;;;;;;5.82;4.75;;;;;;;;;;4971986;28;20043;-73
2021/11/18 01:51:17;;;;;;;6.70;5.57;;;;;;;;;;4954380;28;20536;-71
2021/11/18 01:53:45;;;;;;;5.13;4.63;;;;;;;;;;4972098;28;20050;-73
2021/11/18 01:56:21;;;;;;;5.70;5.20;;;;;;;;;;4971752;28;20046;-73
2021/11/18 01:58:50;;;;;;;6.32;5.72;;;;;;;;;;4971343;28;20508;-73
2021/11/18 02:01:16;;;;;;;5.75;5.15;;;;;;;;;;4972129;28;20077;-72
2021/11/18 02:03:42;;;;;;;6.18;5.35;;;;;;;;;;4971808;28;20444;-72
2021/11/18 02:06:14;;;;;;;5.53;4.97;;;;;;;;;;4969285;28;20031;-73
2021/11/18 02:08:40;;;;;;;5.47;4.97;;;;;;;;;;4971752;28;20050;-71
2021/11/18 02:11:19;;;;;;;5.53;5.03;;;;;;;;;;4971864;28;20061;-72
2021/11/18 02:13:44;;;;;;;4.53;4.13;;;;;;;;;;4973632;28;20078;-73
2021/11/18 02:16:12;;;;;;;5.38;4.88;;;;;;;;;;4974812;28;20047;-74
2021/11/18 02:18:39;;;;;;;5.80;5.18;;;;;;;;;;4975054;28;20071;-72
2021/11/18 02:21:10;;;;;;;5.95;5.40;;;;;;;;;;4974953;28;20504;-73
2021/11/18 02:23:42;;;;;;;4.97;4.38;;;;;;;;;;4975441;28;20053;-72
2021/11/18 02:26:08;;;;;;;5.97;5.22;;;;;;;;;;4975012;28;20042;-73
2021/11/18 02:28:37;;;;;;;4.82;4.32;;;;;;;;;;4955461;28;20555;-72
2021/11/18 02:31:13;;;;;;;7.97;5.75;;;;;;;;;;4957998;28;20132;-73
2021/11/18 02:33:38;;;;;;;5.35;4.65;;;;;;;;;;4975096;28;20047;-72
2021/11/18 02:36:04;;;;;;;5.82;5.18;;;;;;;;;;4957262;28;20043;-74
2021/11/18 02:38:29;;;;;;;5.97;5.10;;;;;;;;;;4975054;28;20144;-73
2021/11/18 02:40:55;;;;;;;5.45;4.65;;;;;;;;;;4974933;28;20050;-73
2021/11/18 02:43:21;;;;;;;5.28;4.78;;;;;;;;;;4974295;28;20051;-74
2021/11/18 02:45:48;;;;;;;5.68;5.18;;;;;;;;;;4975135;28;20118;-73
2021/11/18 02:48:17;;;;;;;4.93;4.43;;;;;;;;;;4974993;28;20507;-73
2021/11/18 02:50:45;;;;;;;6.65;5.15;;;;;;;;;;4972493;28;20038;-73
2021/11/18 02:53:12;;;;;;;5.22;4.75;;;;;;;;;;4974770;28;20496;-73
2021/11/18 02:55:44;;;;;;;6.03;5.07;;;;;;;;;;4956975;28;20034;-73
2021/11/18 02:58:10;;;;;;;6.05;5.50;;;;;;;;;;4973969;28;20126;-73
2021/11/18 03:00:41;;;;;;;8.18;7.40;;;;;;;;;;4974590;28;20448;-74
2021/11/18 03:03:07;;;;;;;5.10;4.60;;;;;;;;;;4974465;28;20055;-72
2021/11/18 03:05:33;;;;;;;6.47;5.72;;;;;;;;;;4973986;28;20042;-73
2021/11/18 03:07:58;;;;;;;8.02;7.43;;;;;;;;;;4974463;28;20461;-74
2021/11/18 03:10:26;;;;;;;5.70;4.47;;;;;;;;;;4974297;28;20074;-73
2021/11/18 03:12:52;;;;;;;5.60;4.82;;;;;;;;;;4954358;28;20134;-74
2021/11/18 03:15:20;;;;;;;5.93;5.30;;;;;;;;;;4974038;28;20204;-73
2021/11/18 03:17:47;;;;;;;7.00;6.15;;;;;;;;;;4974612;28;20089;-73
2021/11/18 03:20:16;;;;;;;6.13;4.53;;;;;;;;;;4972720;28;20046;-73
2021/11/18 03:22:42;;;;;;;6.75;5.20;;;;;;;;;;4973931;28;20039;-73
2021/11/18 03:25:10;;;;;;;6.00;5.38;;;;;;;;;;4973141;28;20043;-72
2021/11/18 03:27:36;;;;;;;5.70;4.40;;;;;;;;;;4956276;28;20526;-73
2021/11/18 03:30:04;;;;;;;5.68;5.00;;;;;;;;;;4974071;28;20488;-73
2021/11/18 03:32:29;;;;;;;6.15;4.63;;;;;;;;;;4973744;28;20049;-73
2021/11/18 03:34:55;;;;;;;4.88;4.43;;;;;;;;;;4970774;28;20038;-74
2021/11/18 03:37:20;;;;;;;5.07;4.57;;;;;;;;;;4973895;28;20074;-73
2021/11/18 03:39:45;;;;;;;6.35;5.75;;;;;;;;;;4973826;28;20370;-73
2021/11/18 03:42:13;;;;;;;6.30;5.70;;;;;;;;;;4973044;28;20126;-72
2021/11/18 03:44:39;;;;;;;5.10;4.55;;;;;;;;;;4973731;28;20082;-73
2021/11/18 03:47:09;;;;;;;4.65;4.20;;;;;;;;;;4973869;28;20058;-74
2021/11/18 03:49:35;;;;;;;6.68;5.38;;;;;;;;;;4972938;28;20519;-73
2021/11/18 03:52:02;;;;;;;5.45;4.95;;;;;;;;;;4973370;28;20047;-74
2021/11/18 03:54:30;;;;;;;5.57;4.88;;;;;;;;;;4973428;28;20038;-74
2021/11/18 03:56:55;;;;;;;6.35;5.68;;;;;;;;;;4970864;28;20047;-72
2021/11/18 03:59:28;;;;;;;5.95;5.30;;;;;;;;;;4973258;28;20039;-73
2021/11/18 04:01:57;;;;;;;5.78;5.25;;;;;;;;;;4973255;28;20060;-73
2021/11/18 04:04:28;;;;;;;5.22;4.72;;;;;;;;;;4972657;28;20062;-72
2021/11/18 04:06:53;;;;;;;5.82;5.30;;;;;;;;;;4973156;28;20420;-73
2021/11/18 04:09:20;;;;;;;6.85;5.18;;;;;;;;;;4973167;28;20046;-73
2021/11/18 04:11:49;;;;;;;6.25;5.60;;;;;;;;;;4972896;28;20046;-73
2021/11/18 04:14:16;;;;;;;5.65;5.07;;;;;;;;;;4973199;28;20045;-73
2021/11/18 04:16:42;;;;;;;5.82;5.25;;;;;;;;;;4972146;28;20090;-73
2021/11/18 04:19:08;;;;;;;6.30;5.13;;;;;;;;;;4971141;28;20153;-73
2021/11/18 04:21:35;;;;;;;7.60;6.90;;;;;;;;;;4956134;28;20483;-73
2021/11/18 04:24:03;;;;;;;6.22;5.63;;;;;;;;;;4972768;28;20145;-72
2021/11/18 04:26:30;;;;;;;7.65;5.88;;;;;;;;;;4972370;28;20101;-73
2021/11/18 04:28:55;;;;;;;6.97;6.28;;;;;;;;;;4971453;28;20039;-73
2021/11/18 04:31:23;;;;;;;7.82;6.18;;;;;;;;;;4972894;28;20097;-73
2021/11/18 04:33:49;;;;;;;7.07;5.70;;;;;;;;;;4971790;28;20170;-72
2021/11/18 04:36:17;;;;;;;6.68;5.80;;;;;;;;;;4972447;28;20133;-74
2021/11/18 04:38:44;;;;;;;8.73;5.60;;;;;;;;;;4971397;28;20393;-73
2021/11/18 04:41:11;;;;;;;7.45;6.75;;;;;;;;;;4971894;28;20129;-73
2021/11/18 04:43:38;;;;;;;6.15;5.43;;;;;;;;;;4972577;28;20034;-73
2021/11/18 04:46:07;;;;;;;7.03;6.35;;;;;;;;;;4972022;28;20058;-73
2021/11/18 04:48:34;;;;;;;6.05;4.78;;;;;;;;;;4972112;28;20039;-74
2021/11/18 04:50:59;;;;;;;8.05;5.40;;;;;;;;;;4972490;28;20532;-74
2021/11/18 04:53:27;;;;;;;6.68;5.88;;;;;;;;;;4972408;28;20134;-72
2021/11/18 04:55:53;;;;;;;7.65;5.45;;;;;;;;;;4971786;28;20050;-74
2021/11/18 04:58:18;;;;;;;7.20;5.68;;;;;;;;;;4972589;28;20034;-75
2021/11/18 05:00:49;;;;;;;6.28;4.63;;;;;;;;;;4952691;28;20575;-73
2021/11/18 05:03:16;;;;;;;7.57;5.82;;;;;;;;;;4971862;28;20098;-74
2021/11/18 05:05:42;;;;;;;8.52;5.90;;;;;;;;;;4972066;28;20129;-74
2021/11/18 05:08:09;;;;;;;5.85;5.15;;;;;;;;;;4972185;28;20193;-73
2021/11/18 05:10:35;;;;;;;8.95;6.05;;;;;;;;;;4971363;28;20196;-72
2021/11/18 05:13:01;;;;;;;9.05;6.07;;;;;;;;;;4972263;28;20043;-74
2021/11/18 05:15:29;;;;;;;10.73;6.50;;;;;;;;;;4971514;28;20519;-73
2021/11/18 05:17:55;;;;;;;7.03;5.30;;;;;;;;;;4971435;28;20043;-74
2021/11/18 05:20:23;;;;;;;7.72;5.80;;;;;;;;;;4972176;28;20039;-74
2021/11/18 05:22:50;;;;;;;8.95;6.05;;;;;;;;;;4969441;28;20051;-74
2021/11/18 05:25:19;;;;;;;8.60;5.57;;;;;;;;;;4971789;28;20523;-73
2021/11/18 05:27:44;;;;;;;7.35;6.63;;;;;;;;;;4972037;28;20050;-73
2021/11/18 05:30:11;;;;;;;6.70;5.90;;;;;;;;;;4971933;28;20488;-73
2021/11/18 05:32:37;;;;;;;9.45;6.22;;;;;;;;;;4953884;28;20046;-73
2021/11/18 05:35:05;;;;;;;6.22;5.63;;;;;;;;;;4971766;28;20058;-73
2021/11/18 05:37:30;;;;;;;7.38;6.10;;;;;;;;;;4971914;28;20054;-73
2021/11/18 05:39:56;;;;;;;6.88;5.63;;;;;;;;;;4971206;28;20158;-74
2021/11/18 05:42:22;;;;;;;6.68;5.60;;;;;;;;;;4971725;28;20058;-74
2021/11/18 05:44:49;;;;;;;7.85;6.13;;;;;;;;;;4968115;28;20094;-74
2021/11/18 05:47:16;;;;;;;5.75;4.97;;;;;;;;;;4954069;28;20038;-74
2021/11/18 05:49:42;;;;;;;10.05;6.38;;;;;;;;;;4975764;28;20101;-72
2021/11/18 05:52:07;;;;;;;7.13;5.47;;;;;;;;;;4975771;28;20039;-73
2021/11/18 05:54:33;;;;;;;5.80;5.07;;;;;;;;;;4974902;28;20057;-72
2021/11/18 05:56:58;;;;;;;9.68;5.93;;;;;;;;;;4975221;28;20086;-72
2021/11/18 05:59:24;;;;;;;8.25;5.63;;;;;;;;;;4975546;28;20085;-73
2021/11/18 06:01:49;;;;;;;5.82;4.80;;;;;;;;;;4975063;28;20122;-72
2021/11/18 06:04:14;;;;;;;5.43;4.93;;;;;;;;;;4975741;28;20066;-72
2021/11/18 06:06:40;;;;;;;8.30;6.25;;;;;;;;;;4973126;28;20047;-72
2021/11/18 06:09:06;;;;;;;6.78;5.75;;;;;;;;;;4975526;28;20117;-72
2021/11/18 06:11:34;;;;;;;5.57;5.10;;;;;;;;;;4974991;28;20046;-73
2021/11/18 06:14:02;;;;;;;8.48;6.18;;;;;;;;;;4975094;28;20046;-72
2021/11/18 06:16:28;;;;;;;5.63;5.10;;;;;;;;;;4974397;28;20532;-72
2021/11/18 06:18:58;;;;;;;6.43;5.53;;;;;;;;;;4974968;28;20039;-73
2021/11/18 06:21:24;;;;;;;6.00;5.40;;;;;;;;;;4957835;28;20045;-72
2021/11/18 06:23:50;;;;;;;5.65;4.75;;;;;;;;;;4974547;28;20050;-73
2021/11/18 06:26:17;;;;;;;5.95;5.03;;;;;;;;;;4974705;28;20038;-72
2021/11/18 06:28:43;;;;;;;4.55;4.20;;;;;;;;;;4955047;28;20047;-72
2021/11/18 06:31:11;;;;;;;6.00;5.20;;;;;;;;;;4974541;28;20129;-73
2021/11/18 06:33:38;;;;;;;6.50;5.18;;;;;;;;;;4974753;28;20042;-73
2021/11/18 06:36:04;;;;;;;6.55;5.43;;;;;;;;;;4974466;28;20479;-73
2021/11/18 06:38:30;;;;;;;5.60;4.78;;;;;;;;;;4974037;28;20043;-71
2021/11/18 06:40:56;;;;;;;7.38;6.53;;;;;;;;;;4974736;28;20111;-73
2021/11/18 06:43:23;;;;;;;6.03;5.25;;;;;;;;;;4974749;28;20047;-72
2021/11/18 06:45:49;;;;;;;6.95;5.72;;;;;;;;;;4974298;28;20694;-71
2021/11/18 06:48:19;;;;;;;7.00;5.22;;;;;;;;;;4975012;28;20596;-72
2021/11/18 06:50:45;;;;;;;6.88;6.18;;;;;;;;;;4972626;28;20049;-71
2021/11/18 06:53:11;;;;;;;5.80;5.22;;;;;;;;;;4974119;28;20051;-73
2021/11/18 06:55:37;;;;;;;6.82;6.13;;;;;;;;;;4974382;28;20054;-73
2021/11/18 06:58:04;;;;;;;10.20;6.32;;;;;;;;;;4974419;28;20051;-74
2021/11/18 07:00:29;;;;;;;5.55;5.07;;;;;;;;;;4972801;28;20081;-72
2021/11/18 07:02:55;;;;;;;5.68;5.18;;;;;;;;;;4974488;28;20074;-71
2021/11/18 07:05:21;;;;;;;5.57;4.97;;;;;;;;;;4974174;28;20039;-73
2021/11/18 07:07:48;;;;;;;7.13;5.57;;;;;;;;;;4973702;28;20051;-73
2021/11/18 07:10:15;;;;;;;7.00;5.85;;;;;;;;;;4974539;28;20035;-72
2021/11/18 07:12:40;;;;;;;6.50;5.35;;;;;;;;;;4971719;28;20038;-72
2021/11/18 07:15:09;;;;;;;8.05;6.63;;;;;;;;;;4973732;28;20206;-72
2021/11/18 07:17:35;;;;;;;7.10;5.65;;;;;;;;;;4973520;28;20043;-73
2021/11/18 07:20:01;;;;;;;6.63;5.72;;;;;;;;;;4974025;28;20509;-72
2021/11/18 07:22:28;;;;;;;8.82;7.13;;;;;;;;;;4973956;28;20185;-72
2021/11/18 07:24:55;;;;;;;6.43;4.78;;;;;;;;;;4971928;28;20416;-73
2021/11/18 07:27:21;;;;;;;7.57;5.30;;;;;;;;;;4973940;28;20043;-73
2021/11/18 07:29:47;;;;;;;10.40;6.57;;;;;;;;;;4974299;28;20050;-73
2021/11/18 07:32:12;;;;;;;9.23;6.85;;;;;;;;;;4973506;28;20050;-72
2021/11/18 07:34:38;;;;;;;8.35;5.93;;;;;;;;;;4970432;28;20192;-73
2021/11/18 07:37:03;;;;;;;9.50;7.20;;;;;;;;;;4973604;28;20481;-71
2021/11/18 07:39:29;;;;;;;7.07;5.88;;;;;;;;;;4973078;28;20058;-73
2021/11/18 07:41:55;;;;;;;15.15;8.30;;;;;;;;;;4973596;28;20038;-73
2021/11/18 07:44:21;;;;;;;14.75;9.00;;;;;;;;;;4973555;28;20051;-72
2021/11/18 07:46:47;;;;;;;11.15;7.10;;;;;;;;;;4953912;28;20043;-72
2021/11/18 07:49:13;;;;;;;12.52;7.85;;;;;;;;;;4954305;29;20039;-73
2021/11/18 07:51:41;;;;;;;9.60;7.53;;;;;;;;;;4953853;29;20509;-72
2021/11/18 07:54:08;;;;;;;12.73;7.80;;;;;;;;;;4954310;29;20046;-73
2021/11/18 07:56:34;;;;;;;11.55;7.10;;;;;;;;;;4936713;29;20505;-72
2021/11/18 07:58:59;;;;;;;11.38;9.60;;;;;;;;;;4953972;28;20071;-72
2021/11/18 08:01:26;;;;;;;9.45;7.03;;;;;;;;;;4953980;29;20066;-73
2021/11/18 08:03:52;;;;;;;10.55;7.68;;;;;;;;;;4953970;29;20126;-73
2021/11/18 08:06:28;;;;;;;7.18;5.28;;;;;;;;;;4953833;29;20475;-72
2021/11/18 08:08:55;;;;;;;11.40;7.57;;;;;;;;;;4936584;29;20063;-72
2021/11/18 08:11:32;;;;;;;12.98;8.32;;;;;;;;;;4936371;29;20083;-74
2021/11/18 08:13:57;;;;;;;;;;;;;;;;;;4954482;29;20043;-74
2021/11/18 08:16:23;;;;;;;11.15;6.90;;;;;;;;;;4953399;29;19933;-74
2021/11/18 08:18:49;;;;;;;10.10;6.82;;;;;;;;;;4953532;29;20047;-73
2021/11/18 08:21:15;;;;;;;12.13;7.72;;;;;;;;;;4953838;29;20043;-72
2021/11/18 08:23:40;;;;;;;9.55;6.40;;;;;;;;;;4953964;29;20122;-72
2021/11/18 08:26:11;;;;;;;12.23;7.72;;;;;;;;;;4953407;29;20047;-72
2021/11/18 08:28:37;;;;;;;11.38;7.72;;;;;;;;;;4953366;29;20050;-74
2021/11/18 08:31:03;;;;;;;10.18;6.88;;;;;;;;;;4953532;29;20042;-73
2021/11/18 08:33:29;;;;;;;8.63;6.55;;;;;;;;;;4953412;29;20051;-73
2021/11/18 08:35:56;;;;;;;9.32;6.97;;;;;;;;;;4953318;29;20178;-73
2021/11/18 08:38:22;;;;;;;9.07;6.90;;;;;;;;;;4953343;29;20555;-74
2021/11/18 08:40:55;;;;;;;11.48;8.10;;;;;;;;;;4953594;29;20420;-74
2021/11/18 08:43:22;;;;;;;10.30;8.35;;;;;;;;;;4953317;29;20043;-73
2021/11/18 08:45:48;;;;;;;9.60;7.30;;;;;;;;;;4953225;29;20134;-74
2021/11/18 08:48:14;;;;;;;11.00;7.15;;;;;;;;;;4953489;29;20127;-72
2021/11/18 08:50:42;;;;;;;8.88;6.88;;;;;;;;;;4953123;29;20043;-73
2021/11/18 08:53:08;;;;;;;9.00;6.50;;;;;;;;;;4952142;29;20050;-73
2021/11/18 08:55:37;;;;;;;8.88;7.32;;;;;;;;;;4953053;29;20039;-73
2021/11/18 08:58:04;;;;;;;9.68;7.38;;;;;;;;;;4953198;29;20567;-74
2021/11/18 09:00:41;;;;;;;9.65;6.32;;;;;;;;;;4953049;29;20178;-73
2021/11/18 09:03:06;;;;;;;9.68;7.63;;;;;;;;;;4952911;29;20051;-73
2021/11/18 09:05:32;;;;;;;9.82;6.97;;;;;;;;;;4951928;29;20043;-71
2021/11/18 09:07:59;;;;;;;7.88;6.88;;;;;;;;;;4953618;29;20127;-71
2021/11/18 09:10:25;;;;;;;10.27;7.03;;;;;;;;;;4953586;29;20039;-71
2021/11/18 09:12:50;;;;;;;9.55;6.75;;;;;;;;;;4953378;29;20473;-72
2021/11/18 09:15:19;;;;;;;7.80;6.43;;;;;;;;;;4953263;29;20043;-71
2021/11/18 09:17:45;;;;;;;8.38;6.95;;;;;;;;;;4936397;29;20119;-72
2021/11/18 09:20:13;;;;;;;9.65;6.57;;;;;;;;;;4953597;29;20066;-72
2021/11/18 09:22:39;;;;;;;8.13;6.68;;;;;;;;;;4952633;29;20122;-71
2021/11/18 09:25:09;;;;;;;8.88;7.97;;;;;;;;;;4953450;29;20449;-72
2021/11/18 09:28:02;;;;;;;6.68;5.95;;;;;;;;;;4953631;29;20074;-72
2021/11/18 09:30:35;;;;;;;7.88;6.13;;;;;;;;;;4950338;29;20134;-72
2021/11/18 09:33:00;;;;;;;6.97;5.60;;;;;;;;;;4953375;28;20082;-73
2021/11/18 09:35:30;;;;;;;8.98;6.30;;;;;;;;;;4953315;29;20039;-72
2021/11/18 09:37:56;;;;;;;7.20;5.85;;;;;;;;;;4936089;29;20039;-71
2021/11/18 09:40:28;;;;;;;8.85;7.90;;;;;;;;;;4953161;29;20449;-72
2021/11/18 09:43:18;;;;;;;7.20;6.40;;;;;;;;;;4953015;29;20052;-71
2021/11/18 09:45:50;;;;;;;11.35;7.45;;;;;;;;;;4953521;29;20054;-73
2021/11/18 09:48:45;;;;;;;7.53;6.50;;;;;;;;;;4953206;29;20032;-71
2021/11/18 09:51:35;;;;;;;8.40;6.70;;;;;;;;;;4923671;29;20057;-72
2021/11/18 09:54:27;;;;;;;7.20;5.55;;;;;;;;;;4953138;29;20051;-70
2021/11/18 09:57:08;;;;;;;6.05;5.55;;;;;;;;;;4953307;29;20047;-71
2021/11/18 10:00:05;;;;;;;8.88;6.30;;;;;;;;;;4951882;29;20081;-72
2021/11/18 10:02:57;;;;;;;6.55;5.97;;;;;;;;;;4953067;28;20469;-72
2021/11/18 10:05:36;;;;;;;7.53;6.35;;;;;;;;;;4944832;29;20048;-72
2021/11/18 10:08:12;;;;;;;8.88;6.93;;;;;;;;;;4951879;29;20047;-72
2021/11/18 10:11:15;;;;;;;7.45;6.65;;;;;;;;;;4952949;29;20090;-72
2021/11/18 10:13:59;;;;;;;7.32;6.20;;;;;;;;;;4953090;29;20051;-73
2021/11/18 10:16:31;;;;;;;8.13;7.25;;;;;;;;;;4952435;29;20122;-71
2021/11/18 10:19:06;;;;;;;6.50;5.75;;;;;;;;;;4952853;29;20098;-72
2021/11/18 10:21:40;;;;;;;7.78;6.30;;;;;;;;;;4952757;29;20043;-71
2021/11/18 10:24:20;;;;;;;8.20;7.38;;;;;;;;;;4952788;29;20046;-71
2021/11/18 10:26:51;;;;;;;7.82;6.50;;;;;;;;;;4952916;28;20078;-72
2021/11/18 10:29:23;;;;;;;7.10;6.35;;;;;;;;;;4935399;29;20066;-71
2021/11/18 10:31:57;;;;;;;10.98;6.55;;;;;;;;;;4952646;29;20084;-70
2021/11/18 10:34:29;;;;;;;7.93;6.07;;;;;;;;;;4954366;28;20355;-72
2021/11/18 10:37:23;;;;;;;6.50;5.68;;;;;;;;;;4956079;29;20058;-71
2021/11/18 10:40:29;;;;;;;6.97;6.30;;;;;;;;;;4956267;29;20043;-72
2021/11/18 10:43:03;;;;;;;6.85;5.72;;;;;;;;;;4947206;29;20485;-71
2021/11/18 10:45:37;;;;;;;6.68;6.05;;;;;;;;;;4955800;29;20080;-72
2021/11/18 10:48:02;;;;;;;6.57;5.90;;;;;;;;;;4955962;29;20201;-72
2021/11/18 10:50:33;;;;;;;6.07;5.57;;;;;;;;;;4955907;29;20190;-71
2021/11/18 10:53:20;;;;;;;5.20;4.70;;;;;;;;;;4956000;29;20047;-72
2021/11/18 10:56:07;;;;;;;8.38;7.00;;;;;;;;;;4954542;28;20043;-71
2021/11/18 10:58:44;;;;;;;6.65;5.90;;;;;;;;;;4955827;29;20537;-73
2021/11/18 11:01:24;;;;;;;7.32;6.63;;;;;;;;;;4955770;29;20555;-71
2021/11/18 11:03:51;;;;;;;7.10;6.40;;;;;;;;;;4956003;29;20531;-73
2021/11/18 11:06:25;;;;;;;6.70;6.05;;;;;;;;;;4955557;29;20047;-75
2021/11/18 11:09:11;;;;;;;6.88;6.07;;;;;;;;;;4955697;29;20046;-74
2021/11/18 11:11:54;;;;;;;6.78;6.18;;;;;;;;;;4955292;29;20039;-74
2021/11/18 11:14:48;;;;;;;7.55;6.38;;;;;;;;;;4952664;28;20450;-75
2021/11/18 11:17:19;;;;;;;6.28;5.68;;;;;;;;;;4947300;28;20133;-74
2021/11/18 11:20:26;;;;;;;7.40;6.60;;;;;;;;;;4954414;29;20082;-74
2021/11/18 11:23:13;;;;;;;5.35;4.90;;;;;;;;;;4928256;29;20071;-74
2021/11/18 11:26:06;;;;;;;6.38;5.75;;;;;;;;;;4931580;29;20106;-72
2021/11/18 11:28:39;;;;;;;6.63;5.88;;;;;;;;;;4935173;29;20163;-74
2021/11/18 11:31:19;;;;;;;7.68;6.20;;;;;;;;;;4935311;29;20052;-73
2021/11/18 11:34:22;;;;;;;5.78;5.05;;;;;;;;;;4962360;28;20077;-73
2021/11/18 11:36:57;;;;;;;6.40;5.80;;;;;;;;;;4973215;28;20050;-73
2021/11/18 11:39:48;;;;;;;7.22;5.88;;;;;;;;;;4973855;28;20507;-74
2021/11/18 11:42:47;;;;;;;6.82;5.18;;;;;;;;;;4973815;28;20086;-73
2021/11/18 11:45:45;;;;;;;7.07;5.88;;;;;;;;;;4955269;28;20046;-75
2021/11/18 11:48:36;;;;;;;7.05;6.40;;;;;;;;;;4953829;28;20566;-74
2021/11/18 11:51:31;;;;;;;7.07;5.75;;;;;;;;;;4973146;28;20042;-74
2021/11/18 11:54:18;;;;;;;5.43;4.95;;;;;;;;;;4928325;28;20050;-74
2021/11/18 11:56:51;;;;;;;8.73;6.15;;;;;;;;;;4973444;28;20051;-73
2021/11/18 11:59:46;;;;;;;6.90;5.60;;;;;;;;;;4972851;28;20500;-73
2021/11/18 12:02:47;;;;;;;5.78;5.22;;;;;;;;;;4969798;28;20050;-74
2021/11/18 12:05:19;;;;;;;6.45;5.95;;;;;;;;;;4920149;28;20047;-74
2021/11/18 12:08:02;;;;;;;5.90;5.32;;;;;;;;;;4972665;28;20066;-76
2021/11/18 12:10:30;;;;;;;6.65;5.88;;;;;;;;;;4971352;28;20109;-74
2021/11/18 12:13:35;;;;;;;5.70;5.15;;;;;;;;;;4972816;28;20052;-74
2021/11/18 12:16:12;;;;;;;6.25;5.43;;;;;;;;;;4938825;28;20051;-74
2021/11/18 12:19:13;;;;;;;7.80;5.47;;;;;;;;;;4972857;28;20398;-76
2021/11/18 12:21:39;;;;;;;5.55;4.85;;;;;;;;;;4972089;28;20158;-76
2021/11/18 12:24:15;;;;;;;5.70;5.07;;;;;;;;;;4972898;28;20137;-71
2021/11/18 12:26:50;;;;;;;;;;;;;;;;;;4972669;28;20050;-75
2021/11/18 12:29:21;;;;;;;6.13;4.85;;;;;;;;;;4955090;28;20071;-76
2021/11/18 12:32:07;;;;;;;5.40;4.90;;;;;;;;;;4970777;28;20050;-75
2021/11/18 12:34:53;;;;;;;4.90;4.40;;;;;;;;;;4972580;28;20129;-76
2021/11/18 12:37:21;;;;;;;5.03;4.55;;;;;;;;;;4971813;28;20142;-76
2021/11/18 12:39:59;;;;;;;5.25;4.75;;;;;;;;;;4972076;28;20453;-75
2021/11/18 12:43:03;;;;;;;6.80;5.32;;;;;;;;;;4972221;28;20039;-77
2021/11/18 12:45:40;;;;;;;5.07;4.63;;;;;;;;;;4972032;28;20133;-75
2021/11/18 12:48:31;;;;;;;5.53;5.00;;;;;;;;;;4972311;28;20046;-76
2021/11/18 12:51:03;;;;;;;5.22;4.72;;;;;;;;;;4952074;28;20046;-77
2021/11/18 12:53:35;;;;;;;6.30;5.18;;;;;;;;;;4970331;28;20574;-79
2021/11/18 12:56:22;;;;;;;5.68;4.97;;;;;;;;;;4972112;28;20077;-76
2021/11/18 12:59:33;;;;;;;4.75;4.35;;;;;;;;;;4971077;28;20047;-76
2021/11/18 13:02:00;;;;;;;5.10;4.47;;;;;;;;;;4971639;28;20051;-76
2021/11/18 13:04:52;;;;;;;5.63;5.13;;;;;;;;;;4972285;28;20055;-76
2021/11/18 13:07:40;;;;;;;6.13;4.60;;;;;;;;;;4972118;28;20050;-78
2021/11/18 13:10:27;;;;;;;10.48;5.50;;;;;;;;;;4971904;28;20453;-75
2021/11/18 13:12:58;;;;;;;5.22;4.72;;;;;;;;;;4944296;29;20051;-76
2021/11/18 13:15:45;;;;;;;6.30;5.72;;;;;;;;;;4951377;29;20527;-76
2021/11/18 13:18:28;;;;;;;7.53;5.93;;;;;;;;;;4951684;28;20039;-77
2021/11/18 13:22:07;;;;;;;9.02;8.02;;;;;;;;;;4935135;29;20150;-76
2021/11/18 13:24:51;;;;;;;5.80;5.03;;;;;;;;;;4814926;29;20637;-77
2021/11/18 13:27:22;;;;;;;7.75;6.25;;;;;;;;;;4860089;29;20060;-77
2021/11/18 13:29:52;;;;;;;5.60;5.05;;;;;;;;;;4935756;29;20054;-78
2021/11/18 13:32:23;;;;;;;12.10;7.38;;;;;;;;;;4930656;29;20035;-78
2021/11/18 13:34:54;;;;;;;;;;;;;;;;;;4946384;28;20531;-76
2021/11/18 13:37:23;;;;;;;6.72;5.03;;;;;;;;;;4971436;28;19921;-76
2021/11/18 13:39:53;;;;;;;51.53;8.95;;;;;;;;;;4958375;28;20047;-77
2021/11/18 13:42:32;;;;;;;6.78;4.55;;;;;;;;;;4951947;29;20062;-77
2021/11/18 13:45:07;;;;;;;23.40;5.50;;;;;;;;;;4950942;29;20047;-76
2021/11/18 13:47:38;;;;;;;4.80;4.38;;;;;;;;;;4951227;29;20043;-76
2021/11/18 13:50:19;;;;;;;4.80;4.32;;;;;;;;;;4952335;29;20548;-76
2021/11/18 13:52:57;;;;;;;83.38;12.43;;;;;;;;;;4944555;29;20508;-77
2021/11/18 13:55:31;;;;;;;9.50;5.68;;;;;;;;;;4951635;29;20057;-76
2021/11/18 13:57:59;;;;;;;21.02;5.00;;;;;;;;;;4952302;29;20419;-77
2021/11/18 14:00:32;;;;;;;20.95;5.57;;;;;;;;;;4951980;29;20191;-78
2021/11/18 14:03:08;;;;;;;18.15;6.93;;;;;;;;;;4930848;29;20050;-76
2021/11/18 14:05:43;;;;;;;6.47;4.93;;;;;;;;;;4949876;29;20047;-78
2021/11/18 14:08:26;;;;;;;37.75;7.20;;;;;;;;;;4952160;28;20132;-78
2021/11/18 14:11:03;;;;;;;4.03;3.60;;;;;;;;;;4936314;29;20078;-77
2021/11/18 14:13:44;;;;;;;5.38;4.72;;;;;;;;;;4974126;28;20525;-78
2021/11/18 14:16:24;;;;;;;24.33;6.20;;;;;;;;;;4974261;28;20051;-77
2021/11/18 14:19:11;;;;;;;6.03;5.45;;;;;;;;;;4955173;28;20063;-77
2021/11/18 14:21:51;;;;;;;5.97;5.30;;;;;;;;;;4954720;29;20051;-77
2021/11/18 14:24:45;;;;;;;5.45;4.95;;;;;;;;;;4952607;29;20509;-79
2021/11/18 14:27:22;;;;;;;4.63;4.25;;;;;;;;;;4951804;29;20090;-76
2021/11/18 14:29:52;;;;;;;4.88;4.47;;;;;;;;;;4955277;29;20047;-76
2021/11/18 14:32:55;;;;;;;7.13;5.03;;;;;;;;;;4937910;29;20150;-76
2021/11/18 14:35:39;;;;;;;5.22;4.75;;;;;;;;;;4936658;29;20047;-76
2021/11/18 14:38:17;;;;;;;4.22;3.92;;;;;;;;;;4953678;29;20059;-77
2021/11/18 14:40:55;;;;;;;5.35;4.32;;;;;;;;;;4962304;28;20059;-77
2021/11/18 14:43:35;;;;;;;6.38;4.57;;;;;;;;;;4960824;28;20039;-77
2021/11/18 14:46:19;;;;;;;43.70;8.70;;;;;;;;;;4956070;28;20043;-74
2021/11/18 14:48:52;;;;;;;12.35;4.88;;;;;;;;;;4962657;28;20101;-76
2021/11/18 14:51:17;;;;;;;4.57;4.13;;;;;;;;;;4971336;28;20077;-75
2021/11/18 14:53:49;;;;;;;4.85;3.47;;;;;;;;;;4953467;28;20535;-77
2021/11/18 14:56:17;;;;;;;5.57;4.07;;;;;;;;;;4952608;29;20086;-76
2021/11/18 14:58:43;;;;;;;4.10;3.17;;;;;;;;;;4955525;28;20476;-76
2021/11/18 15:01:21;;;;;;;201.25;21.70;;;;;;;;;;4961850;28;20086;-76
2021/11/18 15:04:01;;;;;;;5.78;4.20;;;;;;;;;;4964090;28;20042;-77
2021/11/18 15:06:36;;;;;;;5.90;4.30;;;;;;;;;;4964421;28;20497;-75
2021/11/18 15:09:12;;;;;;;6.10;4.07;;;;;;;;;;4958511;28;20051;-76
2021/11/18 15:11:40;;;;;;;5.00;4.35;;;;;;;;;;4956342;28;20094;-76